createdAt,value
2019-05-16T00:00:58.599Z,96700.55
2019-05-16T00:03:31.992Z,96698.38
2019-05-16T00:06:02.485Z,96698.82
2019-05-16T00:08:31.218Z,96688.23
2019-05-16T00:11:03.105Z,96682.55
2019-05-16T00:13:31.817Z,96691.47
2019-05-16T00:16:00.532Z,96695.04
2019-05-16T00:18:33.642Z,96691.58
2019-05-16T00:21:03.031Z,96686.23
2019-05-16T00:23:37.896Z,96686.72
2019-05-16T00:26:07.873Z,96685.75
2019-05-16T00:28:40.659Z,96688.14
2019-05-16T00:31:10.144Z,96685.69
2019-05-16T00:33:42.512Z,96683.20
2019-05-16T00:36:11.138Z,96668.75
2019-05-16T00:38:42.653Z,96654.03
2019-05-16T00:41:11.390Z,96643.14
2019-05-16T00:43:43.979Z,96638.92
2019-05-16T00:46:12.688Z,96632.13
2019-05-16T00:48:41.345Z,96642.95
2019-05-16T00:51:11.542Z,96652.11
2019-05-16T00:53:42.989Z,96658.88
2019-05-16T00:56:12.076Z,96664.40
2019-05-16T00:58:41.938Z,96660.77
2019-05-16T01:01:10.847Z,96654.42
2019-05-16T01:03:39.532Z,96656.06
2019-05-16T01:06:22.686Z,96658.31
2019-05-16T01:08:54.076Z,96658.06
2019-05-16T01:11:22.840Z,96663.52
2019-05-16T01:13:53.171Z,96661.20
2019-05-16T01:16:21.896Z,96660.20
2019-05-16T01:19:11.934Z,96667.56
2019-05-16T01:21:49.288Z,96671.19
2019-05-16T01:24:18.828Z,96670.41
2019-05-16T01:26:50.328Z,96670.84
2019-05-16T01:29:19.032Z,96670.47
2019-05-16T01:31:50.712Z,96661.16
2019-05-16T01:34:22.759Z,96640.18
2019-05-16T01:37:01.678Z,96636.67
2019-05-16T01:39:21.855Z,96652.77
2019-05-16T01:41:50.633Z,96651.46
2019-05-16T01:44:22.270Z,96647.40
2019-05-16T01:47:02.855Z,96628.51
2019-05-16T01:49:34.359Z,96629.41
2019-05-16T01:52:03.113Z,96641.23
2019-05-16T01:54:35.758Z,96648.30
2019-05-16T01:57:04.539Z,96649.56
2019-05-16T01:59:33.202Z,96665.30
2019-05-16T02:02:08.191Z,96665.14
2019-05-16T02:04:37.983Z,96660.73
2019-05-16T02:07:08.696Z,96656.08
2019-05-16T02:09:38.430Z,96658.89
2019-05-16T02:12:10.661Z,96653.97
2019-05-16T02:14:39.802Z,96646.01
2019-05-16T02:17:11.357Z,96643.82
2019-05-16T02:19:40.179Z,96632.86
2019-05-16T02:22:09.090Z,96632.19
2019-05-16T02:24:38.821Z,96637.59
2019-05-16T02:27:09.672Z,96634.22
2019-05-16T02:29:40.267Z,96625.30
2019-05-16T02:32:11.618Z,96625.99
2019-05-16T02:34:42.389Z,96618.77
2019-05-16T02:37:28.781Z,96616.63
2019-05-16T02:39:54.590Z,96615.53
2019-05-16T02:42:31.061Z,96621.14
2019-05-16T02:45:02.492Z,96623.41
2019-05-16T02:47:35.164Z,96622.34
2019-05-16T02:50:02.446Z,96624.02
2019-05-16T02:52:33.914Z,96624.19
2019-05-16T02:55:07.129Z,96614.06
2019-05-16T02:57:41.111Z,96610.98
2019-05-16T03:00:23.312Z,96606.05
2019-05-16T03:02:52.065Z,96607.77
2019-05-16T03:05:25.779Z,96606.00
2019-05-16T03:07:55.526Z,96601.00
2019-05-16T03:10:24.199Z,96606.09
2019-05-16T03:13:00.875Z,96617.31
2019-05-16T03:15:31.147Z,96620.12
2019-05-16T03:18:03.915Z,96604.19
2019-05-16T03:20:40.579Z,96603.76
2019-05-16T03:23:11.333Z,96608.37
2019-05-16T03:25:41.813Z,96608.30
2019-05-16T03:28:11.235Z,96615.02
2019-05-16T03:30:44.483Z,96604.45
2019-05-16T03:33:41.177Z,96610.48
2019-05-16T03:36:04.983Z,96607.13
2019-05-16T03:38:36.750Z,96608.59
2019-05-16T03:41:11.259Z,96604.70
2019-05-16T03:43:50.691Z,96607.69
2019-05-16T03:46:26.557Z,96599.94
2019-05-16T03:48:56.494Z,96607.38
2019-05-16T03:51:30.864Z,96617.37
2019-05-16T04:05:22.884Z,96620.14
2019-05-16T04:08:10.005Z,96618.95
2019-05-16T04:10:23.488Z,96621.27
2019-05-16T04:12:53.336Z,96620.41
2019-05-16T04:15:21.999Z,96622.58
2019-05-16T04:17:51.349Z,96621.83
2019-05-16T04:20:22.294Z,96634.56
2019-05-16T04:22:53.954Z,96625.11
2019-05-16T04:25:25.156Z,96626.34
2019-05-16T04:27:55.367Z,96635.05
2019-05-16T04:30:25.468Z,96627.74
2019-05-16T04:32:55.577Z,96620.22
2019-05-16T04:35:24.278Z,96630.81
2019-05-16T04:38:30.219Z,96632.55
2019-05-16T04:40:46.241Z,96634.21
2019-05-16T04:43:14.980Z,96632.77
2019-05-16T04:46:31.541Z,96640.83
2019-05-16T04:49:17.529Z,96639.59
2019-05-16T04:51:55.425Z,96637.27
2019-05-16T04:54:24.073Z,96643.12
2019-05-16T04:56:52.889Z,96641.00
2019-05-16T04:59:21.658Z,96645.78
2019-05-16T05:01:54.633Z,96648.03
2019-05-16T05:04:24.784Z,96644.84
2019-05-16T05:06:55.965Z,96639.84
2019-05-16T05:09:24.698Z,96642.45
2019-05-16T05:11:55.462Z,96639.27
2019-05-16T05:14:25.029Z,96633.91
2019-05-16T05:17:02.235Z,96631.23
2019-05-16T05:19:34.049Z,96632.82
2019-05-16T05:22:02.826Z,96636.61
2019-05-16T05:24:31.460Z,96644.22
2019-05-16T05:27:19.794Z,96646.95
2019-05-16T05:29:50.304Z,96654.20
2019-05-16T05:32:20.023Z,96646.89
2019-05-16T05:34:50.503Z,96649.08
2019-05-16T05:37:29.761Z,96649.26
2019-05-16T05:39:59.962Z,96645.04
2019-05-16T05:42:30.614Z,96648.42
2019-05-16T05:45:01.128Z,96647.45
2019-05-16T05:47:31.684Z,96654.64
2019-05-16T05:50:03.279Z,96658.27
2019-05-16T05:52:41.333Z,96657.01
2019-05-16T05:55:11.635Z,96651.30
2019-05-16T05:57:40.730Z,96646.39
2019-05-16T06:00:10.347Z,96645.85
2019-05-16T06:02:40.332Z,96647.05
2019-05-16T06:05:10.585Z,96643.40
2019-05-16T06:07:41.363Z,96649.48
2019-05-16T06:10:10.777Z,96648.01
2019-05-16T06:12:40.795Z,96650.35
2019-05-16T06:15:12.908Z,96658.07
2019-05-16T06:17:40.688Z,96652.53
2019-05-16T06:20:14.546Z,96652.17
2019-05-16T06:22:40.372Z,96654.72
2019-05-16T06:25:13.114Z,96657.78
2019-05-16T06:27:42.573Z,96654.33
2019-05-16T06:30:15.955Z,96638.08
2019-05-16T06:32:44.535Z,96642.52
2019-05-16T06:35:13.400Z,96646.14
2019-05-16T06:37:42.180Z,96643.77
2019-05-16T06:40:11.199Z,96643.23
2019-05-16T06:42:46.757Z,96642.64
2019-05-16T06:45:15.254Z,96645.63
2019-05-16T06:47:50.580Z,96642.27
2019-05-16T06:50:21.081Z,96642.52
2019-05-16T06:52:50.269Z,96649.89
2019-05-16T06:55:21.836Z,96644.92
2019-05-16T06:57:57.369Z,96644.90
2019-05-16T07:00:30.172Z,96640.47
2019-05-16T07:03:00.639Z,96629.70
2019-05-16T07:05:36.522Z,96635.94
2019-05-16T07:08:05.541Z,96635.04
2019-05-16T07:10:34.814Z,96624.95
2019-05-16T07:13:06.239Z,96631.34
2019-05-16T07:15:34.934Z,96631.83
2019-05-16T07:21:13.815Z,96639.02
2019-05-16T07:23:42.442Z,96625.34
2019-05-16T07:26:11.085Z,96619.76
2019-05-16T07:28:40.600Z,96614.83
2019-05-16T07:31:15.718Z,96615.29
2019-05-16T07:33:41.294Z,96613.11
2019-05-16T07:36:21.036Z,96603.79
2019-05-16T07:38:50.729Z,96580.64
2019-05-16T07:41:23.819Z,96591.95
2019-05-16T07:43:54.980Z,96588.76
2019-05-16T07:46:25.075Z,96595.07
2019-05-16T07:48:53.697Z,96604.05
2019-05-16T07:51:22.522Z,96605.50
2019-05-16T07:53:51.225Z,96607.89
2019-05-16T07:56:20.537Z,96615.90
2019-05-16T07:59:00.745Z,96607.59
2019-05-16T08:01:32.984Z,96607.34
2019-05-16T08:04:06.018Z,96611.23
2019-05-16T08:06:40.836Z,96612.38
2019-05-16T08:09:13.054Z,96600.25
2019-05-16T08:11:50.031Z,96599.75
2019-05-16T08:14:21.469Z,96594.67
2019-05-16T08:16:52.708Z,96596.44
2019-05-16T08:19:25.223Z,96593.40
2019-05-16T08:21:53.057Z,96596.76
2019-05-16T08:24:23.100Z,96590.25
2019-05-16T08:27:00.996Z,96592.76
2019-05-16T08:29:22.290Z,96602.45
2019-05-16T08:31:52.738Z,96608.97
2019-05-16T08:34:21.778Z,96605.84
2019-05-16T08:39:21.597Z,96605.28
2019-05-16T08:41:52.136Z,96607.80
2019-05-16T08:44:23.704Z,96607.92
2019-05-16T08:46:58.222Z,96608.62
2019-05-16T08:49:30.692Z,96610.43
2019-05-16T08:52:03.909Z,96621.14
2019-05-16T08:54:33.643Z,96602.13
2019-05-16T08:57:25.455Z,96602.30
2019-05-16T08:59:37.288Z,96598.53
2019-05-16T09:02:12.025Z,96601.05
2019-05-16T09:04:44.074Z,96607.92
2019-05-16T09:07:12.635Z,96606.53
2019-05-16T09:09:48.496Z,96600.61
2019-05-16T09:10:20.962Z,96604.42
2019-05-16T09:12:17.192Z,96606.47
2019-05-16T09:14:48.112Z,96617.54
2019-05-16T09:17:18.029Z,96621.12
2019-05-16T09:19:49.284Z,96620.17
2019-05-16T09:22:18.209Z,96621.14
2019-05-16T09:24:57.434Z,96621.20
2019-05-16T09:27:27.294Z,96623.66
2019-05-16T09:29:56.732Z,96624.70
2019-05-16T09:32:27.912Z,96628.09
2019-05-16T09:34:57.334Z,96625.08
2019-05-16T09:37:26.870Z,96629.55
2019-05-16T09:39:57.296Z,96625.52
2019-05-16T09:42:27.663Z,96624.63
2019-05-16T09:44:57.703Z,96629.77
2019-05-16T09:47:28.155Z,96634.12
2019-05-16T09:49:58.072Z,96632.06
2019-05-16T09:52:27.336Z,96633.02
2019-05-16T09:54:57.701Z,96633.02
2019-05-16T09:57:27.748Z,96631.80
2019-05-16T10:00:02.981Z,96632.64
2019-05-16T10:02:36.541Z,96624.64
2019-05-16T10:05:12.902Z,96626.44
2019-05-16T10:07:38.760Z,96624.19
2019-05-16T10:10:12.699Z,96617.76
2019-05-16T10:12:45.662Z,96611.46
2019-05-16T10:15:17.713Z,96602.70
2019-05-16T10:17:47.833Z,96609.42
2019-05-16T10:20:17.846Z,96603.26
2019-05-16T10:22:50.430Z,96612.04
2019-05-16T10:25:27.676Z,96614.98
2019-05-16T10:27:58.352Z,96614.03
2019-05-16T10:30:27.406Z,96620.20
2019-05-16T10:32:57.519Z,96618.44
2019-05-16T10:35:40.701Z,96618.56
2019-05-16T10:38:09.540Z,96621.45
2019-05-16T10:41:07.285Z,96621.77
2019-05-16T10:43:37.465Z,96617.23
2019-05-16T10:46:06.659Z,96616.89
2019-05-16T10:48:37.628Z,96615.42
2019-05-16T10:51:07.763Z,96609.34
2019-05-16T10:54:01.179Z,96609.49
2019-05-16T10:56:07.861Z,96615.83
2019-05-16T10:58:51.737Z,96613.98
2019-05-16T11:01:22.500Z,96604.30
2019-05-16T11:03:37.728Z,96608.64
2019-05-16T11:06:10.301Z,96605.27
2019-05-16T11:08:42.367Z,96609.13
2019-05-16T11:11:11.175Z,96603.58
2019-05-16T11:13:39.955Z,96608.39
2019-05-16T11:16:09.614Z,96615.98
2019-05-16T11:18:38.472Z,96618.92
2019-05-16T11:21:07.139Z,96619.26
2019-05-16T11:23:36.769Z,96618.78
2019-05-16T11:26:05.828Z,96610.58
2019-05-16T11:28:36.741Z,96580.25
2019-05-16T11:31:07.652Z,96588.25
2019-05-16T11:33:36.996Z,96592.52
2019-05-16T11:36:08.104Z,96609.84
2019-05-16T11:38:37.858Z,96600.77
2019-05-16T11:41:07.391Z,96595.39
2019-05-16T11:43:36.771Z,96595.23
2019-05-16T11:46:05.636Z,96573.81
2019-05-16T11:48:37.713Z,96581.23
2019-05-16T11:51:07.382Z,96581.23
2019-05-16T11:53:37.867Z,96592.04
2019-05-16T11:56:08.370Z,96587.77
2019-05-16T11:58:37.420Z,96564.44
2019-05-16T12:01:07.572Z,96575.16
2019-05-16T12:03:37.357Z,96575.70
2019-05-16T12:06:10.994Z,96573.54
2019-05-16T12:08:39.982Z,96566.09
2019-05-16T12:11:08.701Z,96566.92
2019-05-16T12:13:39.539Z,96560.77
2019-05-16T12:16:08.253Z,96556.86
2019-05-16T12:18:37.433Z,96547.14
2019-05-16T12:21:07.605Z,96539.42
2019-05-16T12:23:37.424Z,96539.52
2019-05-16T12:26:07.743Z,96539.34
2019-05-16T12:28:36.662Z,96537.08
2019-05-16T12:31:07.462Z,96529.25
2019-05-16T12:33:37.480Z,96528.75
2019-05-16T12:36:17.506Z,96531.62
2019-05-16T12:38:47.353Z,96518.45
2019-05-16T12:41:16.071Z,96515.47
2019-05-16T12:43:50.542Z,96520.72
2019-05-16T12:46:15.430Z,96509.30
2019-05-16T12:48:47.219Z,96511.51
2019-05-16T12:51:14.665Z,96515.62
2019-05-16T12:53:43.417Z,96517.64
2019-05-16T12:56:12.248Z,96511.19
2019-05-16T12:58:42.455Z,96501.53
2019-05-16T13:01:16.370Z,96499.00
2019-05-16T13:03:43.569Z,96495.69
2019-05-16T13:06:12.416Z,96489.31
2019-05-16T13:08:41.209Z,96489.91
2019-05-16T13:11:11.493Z,96488.36
2019-05-16T13:13:40.402Z,96498.42
2019-05-16T13:16:09.255Z,96498.94
2019-05-16T13:18:37.996Z,96496.55
2019-05-16T13:21:07.258Z,96504.27
2019-05-16T13:23:36.177Z,96500.84
2019-05-16T13:26:07.318Z,96501.83
2019-05-16T13:28:37.753Z,96498.66
2019-05-16T13:31:07.727Z,96492.88
2019-05-16T13:33:36.984Z,96491.48
2019-05-16T13:36:07.507Z,96487.59
2019-05-16T13:38:36.214Z,96487.53
2019-05-16T13:41:07.603Z,96483.25
2019-05-16T13:43:38.026Z,96483.05
2019-05-16T13:46:07.249Z,96482.23
2019-05-16T13:48:37.670Z,96490.26
2019-05-16T13:51:14.876Z,96489.86
2019-05-16T13:53:37.461Z,96489.43
2019-05-16T13:56:12.660Z,96491.96
2019-05-16T13:58:37.444Z,96483.80
2019-05-16T14:01:07.837Z,96484.37
2019-05-16T14:03:37.522Z,96501.16
2019-05-16T14:06:07.183Z,96492.66
2019-05-16T14:08:37.330Z,96493.21
2019-05-16T14:11:10.395Z,96497.34
2019-05-16T14:13:37.646Z,96489.34
2019-05-16T14:16:07.373Z,96488.47
2019-05-16T14:18:37.836Z,96490.58
2019-05-16T14:21:07.162Z,96493.49
2019-05-16T14:23:38.024Z,96496.05
2019-05-16T14:26:07.231Z,96494.45
2019-05-16T14:28:37.426Z,96499.52
2019-05-16T14:31:07.272Z,96496.86
2019-05-16T14:33:36.702Z,96494.81
2019-05-16T14:36:07.322Z,96499.78
2019-05-16T14:38:37.424Z,96493.03
2019-05-16T14:41:08.082Z,96502.52
2019-05-16T14:43:36.857Z,96501.42
2019-05-16T14:46:09.681Z,96497.31
2019-05-16T14:48:38.796Z,96496.88
2019-05-16T14:51:07.828Z,96508.28
2019-05-16T14:53:37.880Z,96504.43
2019-05-16T14:56:07.297Z,96511.45
2019-05-16T14:58:40.493Z,96526.68
2019-05-16T15:01:10.331Z,96533.52
2019-05-16T15:03:39.052Z,96544.90
2019-05-16T15:06:08.872Z,96555.44
2019-05-16T15:08:37.741Z,96565.21
2019-05-16T15:11:09.495Z,96567.90
2019-05-16T15:13:44.902Z,96571.94
2019-05-16T15:16:13.602Z,96566.13
2019-05-16T15:18:42.252Z,96577.90
2019-05-16T15:21:10.855Z,96587.48
2019-05-16T15:23:48.512Z,96586.68
2019-05-16T15:26:23.917Z,96586.68
2019-05-16T15:28:58.894Z,96586.21
2019-05-16T15:31:27.140Z,96584.55
2019-05-16T15:33:57.301Z,96581.47
2019-05-16T15:36:27.236Z,96582.69
2019-05-16T15:38:59.486Z,96595.98
2019-05-16T15:41:29.943Z,96596.73
2019-05-16T15:43:59.314Z,96588.76
2019-05-16T15:46:28.112Z,96589.59
2019-05-16T15:49:00.413Z,96585.56
2019-05-16T15:51:39.128Z,96575.16
2019-05-16T15:54:23.932Z,96576.46
2019-05-16T15:56:56.628Z,96576.48
2019-05-16T15:59:27.166Z,96571.14
2019-05-16T16:01:59.756Z,96572.05
2019-05-16T16:04:28.572Z,96563.97
2019-05-16T16:07:00.042Z,96566.28
2019-05-16T16:09:31.824Z,96562.81
2019-05-16T16:12:02.126Z,96562.02
2019-05-16T16:14:41.788Z,96564.83
2019-05-16T16:17:11.704Z,96556.43
2019-05-16T16:19:46.894Z,96550.53
2019-05-16T16:22:18.090Z,96549.75
2019-05-16T16:24:57.534Z,96550.60
2019-05-16T16:27:27.483Z,96557.00
2019-05-16T16:30:07.441Z,96559.41
2019-05-16T16:32:38.088Z,96563.83
2019-05-16T16:35:07.970Z,96567.75
2019-05-16T16:37:39.763Z,96561.59
2019-05-16T16:40:11.912Z,96553.50
2019-05-16T16:42:41.634Z,96563.44
2019-05-16T16:45:16.818Z,96554.56
2019-05-16T16:47:49.247Z,96564.14
2019-05-16T16:50:22.382Z,96562.83
2019-05-16T16:53:00.086Z,96564.44
2019-05-16T16:55:28.776Z,96565.80
2019-05-16T16:57:59.856Z,96564.66
2019-05-16T17:00:31.284Z,96565.56
2019-05-16T17:03:06.192Z,96574.02
2019-05-16T17:05:37.011Z,96566.77
2019-05-16T17:08:08.508Z,96569.75
2019-05-16T17:10:38.110Z,96568.81
2019-05-16T17:13:06.841Z,96566.98
2019-05-16T17:15:37.999Z,96575.89
2019-05-16T17:18:17.409Z,96565.36
2019-05-16T17:20:50.818Z,96568.84
2019-05-16T17:23:26.440Z,96577.70
2019-05-16T17:25:56.688Z,96580.33
2019-05-16T17:28:31.587Z,96579.08
2019-05-16T17:31:01.552Z,96582.25
2019-05-16T17:33:30.302Z,96585.34
2019-05-16T17:36:01.488Z,96587.61
2019-05-16T17:38:33.028Z,96586.46
2019-05-16T17:41:10.827Z,96589.84
2019-05-16T17:43:39.578Z,96592.81
2019-05-16T17:46:14.927Z,96602.28
2019-05-16T17:48:43.716Z,96601.25
2019-05-16T17:51:12.447Z,96605.97
2019-05-16T17:53:48.159Z,96601.77
2019-05-16T17:56:18.474Z,96599.70
2019-05-16T17:58:47.150Z,96606.31
2019-05-16T18:01:22.664Z,96602.18
2019-05-16T18:03:51.469Z,96614.84
2019-05-16T18:06:27.432Z,96607.83
2019-05-16T18:09:03.560Z,96618.11
2019-05-16T18:11:32.217Z,96613.02
2019-05-16T18:14:02.458Z,96615.75
2019-05-16T18:16:31.126Z,96619.98
2019-05-16T18:19:06.911Z,96621.31
2019-05-16T18:21:37.023Z,96631.48
2019-05-16T18:24:05.864Z,96633.94
2019-05-16T18:26:34.591Z,96632.02
2019-05-16T18:29:21.440Z,96641.40
2019-05-16T18:31:50.222Z,96637.23
2019-05-16T18:34:21.584Z,96633.85
2019-05-16T18:37:00.561Z,96636.31
2019-05-16T18:39:29.154Z,96641.17
2019-05-16T18:42:02.152Z,96635.14
2019-05-16T18:44:36.654Z,96643.61
2019-05-16T18:47:10.524Z,96646.65
2019-05-16T18:49:41.100Z,96661.63
2019-05-16T18:52:09.917Z,96670.94
2019-05-16T18:54:42.950Z,96677.60
2019-05-16T18:57:22.359Z,96683.43
2019-05-16T18:59:51.118Z,96679.41
2019-05-16T19:02:22.869Z,96677.70
2019-05-16T19:04:51.504Z,96675.02
2019-05-16T19:07:20.222Z,96681.95
2019-05-16T19:09:58.257Z,96680.80
2019-05-16T19:12:37.391Z,96696.66
2019-05-16T19:15:17.993Z,96695.13
2019-05-16T19:17:46.801Z,96691.89
2019-05-16T19:20:18.384Z,96699.39
2019-05-16T19:22:47.042Z,96697.78
2019-05-16T19:25:18.343Z,96699.53
2019-05-16T19:27:46.482Z,96704.12
2019-05-16T19:30:18.408Z,96709.78
2019-05-16T19:32:47.148Z,96715.67
2019-05-16T19:35:17.268Z,96716.75
2019-05-16T19:37:47.864Z,96720.98
2019-05-16T19:40:18.082Z,96722.99
2019-05-16T19:42:52.981Z,96725.53
2019-05-16T19:45:26.761Z,96728.06
2019-05-16T19:47:57.790Z,96723.06
2019-05-16T19:50:28.707Z,96727.50
2019-05-16T19:53:01.514Z,96730.25
2019-05-16T19:55:30.166Z,96732.95
2019-05-16T19:57:58.874Z,96733.72
2019-05-16T20:00:34.068Z,96731.91
2019-05-16T20:03:10.222Z,96726.53
2019-05-16T20:05:41.281Z,96728.27
2019-05-16T20:08:11.504Z,96726.09
2019-05-16T20:10:47.543Z,96732.94
2019-05-16T20:13:18.307Z,96736.33
2019-05-16T20:15:47.279Z,96736.30
2019-05-16T20:18:18.240Z,96733.95
2019-05-16T20:20:47.248Z,96741.82
2019-05-16T20:23:18.829Z,96750.97
2019-05-16T20:25:49.110Z,96752.85
2019-05-16T20:28:22.687Z,96749.30
2019-05-16T20:30:51.376Z,96743.14
2019-05-16T20:33:29.054Z,96749.23
2019-05-16T20:36:01.872Z,96746.17
2019-05-16T20:38:37.178Z,96747.72
2019-05-16T20:41:07.762Z,96746.37
2019-05-16T20:43:39.273Z,96757.08
2019-05-16T20:46:08.056Z,96752.95
2019-05-16T20:48:41.720Z,96754.87
2019-05-16T20:51:16.566Z,96752.69
2019-05-16T20:53:46.850Z,96750.50
2019-05-16T20:56:14.445Z,96756.20
2019-05-16T20:58:46.746Z,96756.14
2019-05-16T21:01:23.634Z,96753.98
2019-05-16T21:03:54.370Z,96751.39
2019-05-16T21:06:28.878Z,96753.45
2019-05-16T21:08:57.677Z,96749.08
2019-05-16T21:11:26.503Z,96753.72
2019-05-16T21:13:56.557Z,96754.55
2019-05-16T21:16:27.022Z,96757.05
2019-05-16T21:18:57.481Z,96755.19
2019-05-16T21:21:36.779Z,96753.28
2019-05-16T21:24:06.987Z,96757.19
2019-05-16T21:26:36.812Z,96753.95
2019-05-16T21:29:07.502Z,96755.42
2019-05-16T21:31:36.880Z,96755.13
2019-05-16T21:34:07.163Z,96749.56
2019-05-16T21:36:37.914Z,96755.51
2019-05-16T21:39:08.633Z,96745.54
2019-05-16T21:41:37.483Z,96742.03
2019-05-16T21:44:06.464Z,96759.08
2019-05-16T21:46:38.686Z,96749.89
2019-05-16T21:49:13.711Z,96752.40
2019-05-16T21:51:46.415Z,96751.94
2019-05-16T21:54:14.448Z,96744.38
2019-05-16T21:56:43.210Z,96750.03
2019-05-16T21:59:15.018Z,96751.03
2019-05-16T22:01:47.290Z,96744.70
2019-05-16T22:04:17.872Z,96754.22
2019-05-16T22:06:51.085Z,96751.80
2019-05-16T22:09:26.477Z,96758.26
2019-05-16T22:11:52.748Z,96755.72
2019-05-16T22:14:24.335Z,96757.42
2019-05-16T22:16:53.061Z,96754.34
2019-05-16T22:19:32.652Z,96762.23
2019-05-16T22:22:04.173Z,96754.62
2019-05-16T22:24:34.393Z,96755.20
2019-05-16T22:27:06.815Z,96762.23
2019-05-16T22:29:37.409Z,96766.28
2019-05-16T22:32:09.366Z,96761.72
2019-05-16T22:34:39.749Z,96756.48
2019-05-16T22:37:08.488Z,96756.73
2019-05-16T22:39:41.895Z,96754.17
2019-05-16T22:42:10.681Z,96750.19
2019-05-16T22:44:41.437Z,96743.70
2019-05-16T22:47:16.994Z,96742.56
2019-05-16T22:49:49.187Z,96747.05
2019-05-16T22:52:17.844Z,96744.31
2019-05-16T22:54:47.587Z,96749.20
2019-05-16T22:57:17.641Z,96741.61
2019-05-16T22:59:46.515Z,96740.36
2019-05-16T23:02:16.862Z,96743.23
2019-05-16T23:04:47.928Z,96742.78
2019-05-16T23:07:16.630Z,96738.36
2019-05-16T23:09:47.219Z,96734.94
2019-05-16T23:12:17.857Z,96736.58
2019-05-16T23:14:50.725Z,96733.23
2019-05-16T23:17:19.368Z,96736.63
2019-05-16T23:19:48.215Z,96731.48
2019-05-16T23:22:16.935Z,96739.00
2019-05-16T23:24:56.889Z,96743.42
2019-05-16T23:27:28.045Z,96739.44
2019-05-16T23:30:02.283Z,96735.66
2019-05-16T23:32:31.067Z,96741.23
2019-05-16T23:35:07.124Z,96742.12
2019-05-16T23:37:39.904Z,96743.72
2019-05-16T23:40:10.223Z,96738.27
2019-05-16T23:42:39.489Z,96726.69
2019-05-16T23:45:09.122Z,96715.75
2019-05-16T23:47:37.910Z,96722.59
2019-05-16T23:50:08.045Z,96727.06
2019-05-16T23:52:37.119Z,96728.05
2019-05-16T23:55:17.712Z,96723.62
2019-05-16T23:57:46.725Z,96721.34
